Time;durP1;ratioP1;P1;durP2;ratioP2;P2;SDS_P1;SDS_P2;PMS_P1;PMS_P2;Temp;Humidity;BMP_temperature;BMP_pressure;BME280_temperature;BME280_humidity;BME280_pressure;Samples;Min_cycle;Max_cycle;Signal;HPM_P1;HPM_P2
2023/10/09 00:01:13;;;;;;;1.25;1.02;;;;;;;;;;4999370;28;19910;-77
2023/10/09 00:03:43;;;;;;;1.40;1.13;;;;;;;;;;4999767;28;20033;-76
2023/10/09 00:06:13;;;;;;;1.20;1.10;;;;;;;;;;5001636;28;20409;-77
2023/10/09 00:08:44;;;;;;;1.00;0.90;;;;;;;;;;5001339;28;20026;-77
2023/10/09 00:11:15;;;;;;;1.88;0.98;;;;;;;;;;4998824;28;20022;-77
2023/10/09 00:14:00;;;;;;;1.08;1.00;;;;;;;;;;4999629;28;20122;-76
2023/10/09 00:16:40;;;;;;;1.15;1.05;;;;;;;;;;4981433;28;20026;-77
2023/10/09 00:19:30;;;;;;;0.77;0.77;;;;;;;;;;4998575;28;20508;-76
2023/10/09 00:21:58;;;;;;;1.30;1.00;;;;;;;;;;4999094;28;20030;-77
2023/10/09 00:24:24;;;;;;;1.77;1.33;;;;;;;;;;4997481;28;20025;-76
2023/10/09 00:29:54;;;;;;;1.20;1.08;;;;;;;;;;4985709;28;20035;-76
2023/10/09 00:32:26;;;;;;;1.65;1.30;;;;;;;;;;4996537;28;20022;-77
2023/10/09 00:34:52;;;;;;;0.90;0.90;;;;;;;;;;4997894;28;20033;-77
2023/10/09 00:37:26;;;;;;;1.38;1.10;;;;;;;;;;4997852;28;20077;-76
2023/10/09 00:39:56;;;;;;;1.13;0.98;;;;;;;;;;4991711;28;20031;-77
2023/10/09 00:42:35;;;;;;;2.05;0.85;;;;;;;;;;5011986;28;20026;-75
2023/10/09 00:45:04;;;;;;;1.38;1.02;;;;;;;;;;5009289;28;20010;-76
2023/10/09 00:47:35;;;;;;;0.90;0.90;;;;;;;;;;5004791;28;20026;-75
2023/10/09 00:50:21;;;;;;;1.10;0.93;;;;;;;;;;4996161;28;20037;-76
2023/10/09 00:53:02;;;;;;;2.53;1.40;;;;;;;;;;4999516;28;20050;-76
2023/10/09 00:56:11;;;;;;;0.93;0.80;;;;;;;;;;5002795;28;20034;-77
2023/10/09 00:58:30;;;;;;;1.00;0.98;;;;;;;;;;4998688;28;20031;-77
2023/10/09 01:00:59;;;;;;;1.02;0.90;;;;;;;;;;5008834;28;20424;-76
2023/10/09 01:03:26;;;;;;;1.52;1.05;;;;;;;;;;5010784;28;20022;-76
2023/10/09 01:06:16;;;;;;;1.83;1.25;;;;;;;;;;5014499;28;20045;-76
2023/10/09 01:11:23;;;;;;;1.67;1.35;;;;;;;;;;5005927;28;20038;-77
2023/10/09 01:13:53;;;;;;;0.77;0.77;;;;;;;;;;4982345;28;20031;-77
2023/10/09 01:16:23;;;;;;;1.40;1.30;;;;;;;;;;4964592;28;20026;-76
2023/10/09 01:18:49;;;;;;;0.98;0.98;;;;;;;;;;4981440;28;20117;-77
2023/10/09 01:21:15;;;;;;;1.23;0.90;;;;;;;;;;4980913;28;20031;-76
2023/10/09 01:24:02;;;;;;;1.48;0.82;;;;;;;;;;4997669;28;20492;-77
2023/10/09 01:26:32;;;;;;;1.52;1.02;;;;;;;;;;5000594;28;20046;-77
2023/10/09 01:29:00;;;;;;;0.82;0.82;;;;;;;;;;5001036;28;20389;-76
2023/10/09 01:31:26;;;;;;;1.48;1.08;;;;;;;;;;4999610;28;20023;-76
2023/10/09 01:33:59;;;;;;;1.75;1.02;;;;;;;;;;4998939;28;20027;-76
2023/10/09 01:36:31;;;;;;;0.98;0.93;;;;;;;;;;4982693;28;20456;-77
2023/10/09 01:38:57;;;;;;;;;;;;;;;;;;5000430;28;20392;-77
2023/10/09 01:41:23;;;;;;;1.33;0.80;;;;;;;;;;5000967;28;19949;-77
2023/10/09 01:43:51;;;;;;;0.82;0.82;;;;;;;;;;4981798;28;20128;-76
2023/10/09 01:46:19;;;;;;;0.82;0.80;;;;;;;;;;5005326;28;20054;-76
2023/10/09 01:48:46;;;;;;;0.60;0.60;;;;;;;;;;5007008;28;20110;-77
2023/10/09 01:51:19;;;;;;;1.58;1.00;;;;;;;;;;5005803;28;20030;-76
2023/10/09 01:53:53;;;;;;;1.42;1.33;;;;;;;;;;5006266;28;20034;-76
2023/10/09 01:56:19;;;;;;;2.78;1.27;;;;;;;;;;5008339;28;20101;-77
2023/10/09 01:58:47;;;;;;;1.88;1.13;;;;;;;;;;4986676;28;20358;-77
2023/10/09 02:01:14;;;;;;;2.65;2.08;;;;;;;;;;5005168;28;20026;-77
2023/10/09 02:03:42;;;;;;;2.25;1.35;;;;;;;;;;5006981;28;20053;-76
2023/10/09 02:06:25;;;;;;;2.75;1.23;;;;;;;;;;5008975;28;20077;-77
2023/10/09 02:08:53;;;;;;;2.10;1.20;;;;;;;;;;4989101;28;20022;-77
2023/10/09 02:11:35;;;;;;;1.60;1.38;;;;;;;;;;5003226;28;20030;-78
2023/10/09 02:14:01;;;;;;;2.85;1.60;;;;;;;;;;5002506;28;20026;-76
2023/10/09 02:16:28;;;;;;;3.40;1.38;;;;;;;;;;4984349;28;20089;-76
2023/10/09 02:18:58;;;;;;;1.58;1.10;;;;;;;;;;5004392;28;20086;-76
2023/10/09 02:21:39;;;;;;;2.33;1.20;;;;;;;;;;5002361;28;20015;-77
2023/10/09 02:24:26;;;;;;;2.40;1.42;;;;;;;;;;5002623;28;20145;-77
2023/10/09 02:29:18;;;;;;;1.48;1.08;;;;;;;;;;5006226;28;20030;-77
2023/10/09 02:31:47;;;;;;;1.38;1.02;;;;;;;;;;4983446;28;20065;-77
2023/10/09 02:34:15;;;;;;;2.65;1.60;;;;;;;;;;4999538;28;20026;-76
2023/10/09 02:36:42;;;;;;;2.50;1.13;;;;;;;;;;5002653;28;20045;-77
2023/10/09 02:39:22;;;;;;;3.40;1.65;;;;;;;;;;5004308;28;20053;-76
2023/10/09 02:41:49;;;;;;;2.60;1.65;;;;;;;;;;4986617;28;20030;-77
2023/10/09 02:44:15;;;;;;;2.83;1.20;;;;;;;;;;5004188;28;20105;-77
2023/10/09 02:46:44;;;;;;;2.88;1.63;;;;;;;;;;5002573;28;20449;-77
2023/10/09 02:49:15;;;;;;;0.90;0.85;;;;;;;;;;4999455;28;20023;-76
2023/10/09 02:51:47;;;;;;;1.00;0.95;;;;;;;;;;4998618;28;20030;-77
2023/10/09 02:59:31;;;;;;;1.20;0.93;;;;;;;;;;4997858;28;20053;-77
2023/10/09 03:01:59;;;;;;;1.30;1.20;;;;;;;;;;4998432;28;20029;-77
2023/10/09 03:04:30;;;;;;;1.10;0.93;;;;;;;;;;5000032;28;20029;-77
2023/10/09 03:06:57;;;;;;;1.30;1.02;;;;;;;;;;5001223;28;20108;-77
2023/10/09 03:09:27;;;;;;;1.08;0.98;;;;;;;;;;5002375;28;20034;-77
2023/10/09 03:12:03;;;;;;;0.80;0.80;;;;;;;;;;5002286;28;20026;-76
2023/10/09 03:14:30;;;;;;;1.42;0.80;;;;;;;;;;4999988;28;20034;-77
2023/10/09 03:16:58;;;;;;;2.38;1.15;;;;;;;;;;4998876;28;20030;-76
2023/10/09 03:19:28;;;;;;;0.90;0.90;;;;;;;;;;4981510;28;20023;-77
2023/10/09 03:21:55;;;;;;;2.17;0.82;;;;;;;;;;5000160;28;20026;-77
2023/10/09 03:24:22;;;;;;;1.70;1.17;;;;;;;;;;4999823;28;20092;-77
2023/10/09 03:26:49;;;;;;;1.65;1.05;;;;;;;;;;4999464;28;20493;-77
2023/10/09 03:29:19;;;;;;;3.15;1.83;;;;;;;;;;4999876;28;20027;-77
2023/10/09 03:31:46;;;;;;;1.70;1.35;;;;;;;;;;4999740;28;20456;-77
2023/10/09 03:34:12;;;;;;;1.67;1.38;;;;;;;;;;4980918;28;20033;-77
2023/10/09 03:36:38;;;;;;;1.17;1.00;;;;;;;;;;4980519;28;20085;-76
2023/10/09 03:39:20;;;;;;;1.48;1.00;;;;;;;;;;5000348;28;20026;-77
2023/10/09 03:41:47;;;;;;;1.48;1.00;;;;;;;;;;4982028;28;20033;-77
2023/10/09 03:44:17;;;;;;;1.52;0.93;;;;;;;;;;4999022;28;20019;-76
2023/10/09 03:46:44;;;;;;;2.13;1.48;;;;;;;;;;4997256;28;20022;-77
2023/10/09 03:49:15;;;;;;;3.00;1.88;;;;;;;;;;5000446;28;20018;-77
2023/10/09 03:51:42;;;;;;;2.13;1.02;;;;;;;;;;4980450;28;20369;-76
2023/10/09 03:54:09;;;;;;;1.55;1.27;;;;;;;;;;4999083;28;20081;-77
2023/10/09 03:56:35;;;;;;;1.13;0.90;;;;;;;;;;5000666;28;20087;-76
2023/10/09 03:59:05;;;;;;;1.65;1.13;;;;;;;;;;5000899;28;20030;-77
2023/10/09 04:01:40;;;;;;;3.40;1.23;;;;;;;;;;4997843;28;20168;-76
2023/10/09 04:04:10;;;;;;;1.67;1.30;;;;;;;;;;4997606;28;20026;-77
2023/10/09 04:06:37;;;;;;;2.45;1.50;;;;;;;;;;4997265;28;20117;-77
2023/10/09 04:12:30;;;;;;;1.23;1.15;;;;;;;;;;4997187;28;20121;-77
2023/10/09 04:14:36;;;;;;;1.25;0.70;;;;;;;;;;5000604;28;20042;-76
2023/10/09 04:17:08;;;;;;;1.27;0.60;;;;;;;;;;4983919;28;20481;-77
2023/10/09 04:19:48;;;;;;;1.05;0.95;;;;;;;;;;5001635;28;20039;-76
2023/10/09 04:22:26;;;;;;;1.00;0.90;;;;;;;;;;4983753;28;20027;-77
2023/10/09 04:24:52;;;;;;;0.75;0.70;;;;;;;;;;4941847;28;1170197;-76
2023/10/09 04:27:26;;;;;;;1.10;0.93;;;;;;;;;;4981577;28;20397;-77
2023/10/09 04:29:54;;;;;;;1.40;0.90;;;;;;;;;;4998150;28;20046;-77
2023/10/09 04:32:24;;;;;;;1.00;0.70;;;;;;;;;;4984792;28;20022;-77
2023/10/09 04:34:57;;;;;;;1.00;0.90;;;;;;;;;;4986326;28;20468;-77
2023/10/09 04:37:48;;;;;;;0.98;0.77;;;;;;;;;;5001482;28;20408;-77
2023/10/09 04:40:13;;;;;;;0.95;0.90;;;;;;;;;;5001302;28;20096;-77
2023/10/09 04:42:46;;;;;;;1.13;0.55;;;;;;;;;;5002303;28;20026;-76
2023/10/09 04:47:57;;;;;;;1.05;0.95;;;;;;;;;;5003048;28;20037;-77
2023/10/09 04:52:55;;;;;;;;;;;;;;;;;;5004219;28;20130;-76
2023/10/09 04:55:25;;;;;;;0.52;0.40;;;;;;;;;;5006151;28;19905;-76
2023/10/09 04:58:02;;;;;;;0.77;0.60;;;;;;;;;;5006653;28;20026;-77
2023/10/09 05:03:03;;;;;;;0.45;0.45;;;;;;;;;;5004828;28;20065;-77
2023/10/09 05:11:04;;;;;;;0.63;0.40;;;;;;;;;;4983587;28;20033;-77
2023/10/09 05:16:04;;;;;;;1.15;0.60;;;;;;;;;;4986355;28;20484;-77
2023/10/09 05:18:37;;;;;;;0.50;0.50;;;;;;;;;;4998587;28;20077;-76
2023/10/09 05:29:19;;;;;;;0.52;0.52;;;;;;;;;;5004596;28;20125;-77
2023/10/09 05:32:04;;;;;;;0.40;0.40;;;;;;;;;;5003884;28;20018;-77
2023/10/09 05:34:34;;;;;;;0.68;0.68;;;;;;;;;;5006675;28;20049;-77
2023/10/09 05:47:54;;;;;;;0.30;0.30;;;;;;;;;;5006857;28;20030;-76
2023/10/09 06:03:48;;;;;;;0.32;0.32;;;;;;;;;;5010592;28;20041;-76
2023/10/09 06:06:33;;;;;;;0.47;0.47;;;;;;;;;;5010690;28;20022;-76
2023/10/09 06:11:46;;;;;;;0.93;0.60;;;;;;;;;;5002827;28;20068;-77
2023/10/09 06:14:12;;;;;;;0.35;0.35;;;;;;;;;;4976752;28;20066;-76
2023/10/09 06:16:43;;;;;;;0.30;0.30;;;;;;;;;;4994033;28;20030;-76
2023/10/09 06:19:25;;;;;;;0.43;0.43;;;;;;;;;;4979790;28;20080;-77
2023/10/09 06:24:18;;;;;;;1.45;1.00;;;;;;;;;;4994065;28;20038;-76
2023/10/09 06:27:12;;;;;;;2.25;1.00;;;;;;;;;;4976794;28;20030;-77
2023/10/09 06:34:56;;;;;;;5.65;1.85;;;;;;;;;;5014666;28;20037;-76
2023/10/09 06:45:28;;;;;;;1.65;1.20;;;;;;;;;;5004095;28;20031;-77
2023/10/09 06:48:09;;;;;;;3.50;1.58;;;;;;;;;;5015153;28;20014;-77
2023/10/09 06:53:25;;;;;;;2.35;1.58;;;;;;;;;;5016764;28;20444;-77
2023/10/09 06:55:51;;;;;;;2.25;1.15;;;;;;;;;;5019858;28;20018;-76
2023/10/09 06:58:41;;;;;;;1.58;0.98;;;;;;;;;;5018182;28;20388;-76
2023/10/09 07:01:25;;;;;;;1.42;1.10;;;;;;;;;;5015589;28;20026;-76
2023/10/09 07:03:54;;;;;;;1.38;1.08;;;;;;;;;;5015762;28;20464;-76
2023/10/09 07:06:23;;;;;;;0.75;0.75;;;;;;;;;;5017439;28;20030;-75
2023/10/09 07:14:32;;;;;;;1.13;0.90;;;;;;;;;;5013996;28;20404;-75
2023/10/09 07:24:49;;;;;;;2.83;1.48;;;;;;;;;;4994244;28;20037;-77
2023/10/09 07:28:18;;;;;;;2.92;1.50;;;;;;;;;;4977001;28;20117;-76
2023/10/09 07:33:05;;;;;;;4.60;1.60;;;;;;;;;;4975320;28;20053;-77
2023/10/09 07:38:10;;;;;;;5.40;1.85;;;;;;;;;;4976713;28;20109;-75
2023/10/09 07:40:55;;;;;;;5.07;2.10;;;;;;;;;;4976545;28;20022;-78
2023/10/09 07:48:56;;;;;;;4.30;1.80;;;;;;;;;;4977706;28;20057;-76
2023/10/09 07:52:05;;;;;;;5.45;2.05;;;;;;;;;;4979775;28;20034;-76
2023/10/09 07:54:14;;;;;;;5.10;2.25;;;;;;;;;;4995284;28;20385;-76
2023/10/09 07:56:53;;;;;;;4.25;2.00;;;;;;;;;;4998028;28;20030;-77
2023/10/09 07:59:19;;;;;;;9.63;2.78;;;;;;;;;;4997770;28;20073;-76
2023/10/09 08:01:52;;;;;;;5.78;2.08;;;;;;;;;;4997968;28;20040;-76
2023/10/09 08:07:19;;;;;;;6.63;2.17;;;;;;;;;;4998330;28;20045;-76
2023/10/09 08:09:48;;;;;;;10.68;2.50;;;;;;;;;;4996999;28;20278;-76
2023/10/09 08:18:03;;;;;;;8.93;2.63;;;;;;;;;;4996826;28;20026;-76
2023/10/09 08:23:47;;;;;;;10.77;2.78;;;;;;;;;;5006523;28;20108;-77
2023/10/09 08:26:14;;;;;;;11.15;2.83;;;;;;;;;;5029013;28;20045;-75
2023/10/09 08:28:45;;;;;;;15.43;3.55;;;;;;;;;;5027558;28;20030;-77
2023/10/09 08:31:44;;;;;;;9.93;2.90;;;;;;;;;;5015534;28;20104;-77
2023/10/09 08:34:23;;;;;;;12.32;4.03;;;;;;;;;;5030827;28;20018;-77
2023/10/09 08:36:52;;;;;;;10.15;2.90;;;;;;;;;;5024734;28;20101;-77
2023/10/09 08:39:30;;;;;;;11.00;3.28;;;;;;;;;;5016191;28;20022;-76
2023/10/09 08:42:01;;;;;;;11.65;2.17;;;;;;;;;;5017447;28;20022;-77
2023/10/09 08:44:29;;;;;;;5.75;2.08;;;;;;;;;;5016385;28;20105;-77
2023/10/09 08:46:57;;;;;;;4.43;2.22;;;;;;;;;;5016794;28;20055;-77
2023/10/09 08:49:23;;;;;;;5.90;1.77;;;;;;;;;;5016476;28;20029;-76
2023/10/09 08:51:49;;;;;;;6.95;2.83;;;;;;;;;;5016737;28;20026;-77
2023/10/09 08:54:15;;;;;;;6.95;2.17;;;;;;;;;;5005591;28;20109;-77
2023/10/09 08:56:51;;;;;;;6.43;2.20;;;;;;;;;;5011705;28;20692;-76
2023/10/09 08:59:18;;;;;;;6.13;2.00;;;;;;;;;;5016570;28;20034;-77
2023/10/09 09:01:45;;;;;;;5.53;2.22;;;;;;;;;;5017135;28;20108;-76
2023/10/09 09:04:11;;;;;;;7.43;2.28;;;;;;;;;;5016765;28;20026;-77
2023/10/09 09:06:41;;;;;;;6.40;2.40;;;;;;;;;;5018674;28;20040;-76
2023/10/09 09:09:16;;;;;;;7.97;2.20;;;;;;;;;;5018669;28;20030;-76
2023/10/09 09:11:48;;;;;;;8.75;2.63;;;;;;;;;;5016727;28;20127;-77
2023/10/09 09:14:22;;;;;;;8.52;2.80;;;;;;;;;;5015632;28;20022;-77
2023/10/09 09:16:48;;;;;;;6.70;2.65;;;;;;;;;;5016343;28;20096;-78
2023/10/09 09:19:17;;;;;;;7.00;2.60;;;;;;;;;;5016507;28;20449;-77
2023/10/09 09:21:49;;;;;;;6.65;2.30;;;;;;;;;;5015606;28;20022;-77
2023/10/09 09:26:58;;;;;;;18.38;3.05;;;;;;;;;;5001248;28;20038;-76
2023/10/09 09:29:25;;;;;;;12.05;3.08;;;;;;;;;;5016844;28;20030;-78
2023/10/09 09:31:55;;;;;;;8.02;2.92;;;;;;;;;;5015827;28;20084;-76
2023/10/09 09:34:28;;;;;;;7.93;2.67;;;;;;;;;;5016082;28;20025;-77
2023/10/09 09:36:56;;;;;;;6.60;2.40;;;;;;;;;;4993281;28;20051;-78
2023/10/09 09:39:33;;;;;;;14.65;4.70;;;;;;;;;;4978132;28;20449;-77
2023/10/09 09:42:17;;;;;;;9.80;3.58;;;;;;;;;;4976900;28;20026;-76
2023/10/09 09:44:45;;;;;;;13.70;3.85;;;;;;;;;;4976611;28;20030;-78
2023/10/09 09:47:23;;;;;;;6.95;2.83;;;;;;;;;;5010973;28;20034;-78
2023/10/09 09:49:50;;;;;;;8.38;3.20;;;;;;;;;;4978612;28;20030;-77
2023/10/09 09:52:19;;;;;;;11.90;2.22;;;;;;;;;;4996415;28;20023;-75
2023/10/09 09:54:45;;;;;;;10.40;3.22;;;;;;;;;;4996789;28;20101;-78
2023/10/09 09:57:15;;;;;;;9.13;2.78;;;;;;;;;;4992651;28;20022;-78
2023/10/09 09:59:49;;;;;;;6.28;2.50;;;;;;;;;;5016084;28;20014;-77
2023/10/09 10:02:20;;;;;;;13.93;3.53;;;;;;;;;;5015368;28;20025;-77
2023/10/09 10:04:50;;;;;;;13.85;3.78;;;;;;;;;;5015777;28;20029;-77
2023/10/09 10:07:17;;;;;;;9.02;2.95;;;;;;;;;;5006987;28;20053;-77
2023/10/09 10:09:44;;;;;;;17.38;4.00;;;;;;;;;;4998185;28;20046;-77
2023/10/09 10:12:11;;;;;;;6.30;3.15;;;;;;;;;;4995857;28;20247;-77
2023/10/09 10:15:04;;;;;;;7.88;3.00;;;;;;;;;;4996325;28;20041;-76
2023/10/09 10:17:31;;;;;;;10.30;3.28;;;;;;;;;;5008253;28;20018;-76
2023/10/09 10:20:01;;;;;;;12.15;3.42;;;;;;;;;;5015130;28;20362;-77
2023/10/09 10:22:27;;;;;;;19.60;4.28;;;;;;;;;;5015190;28;20507;-77
2023/10/09 10:24:54;;;;;;;11.57;3.50;;;;;;;;;;5013760;28;20048;-77
2023/10/09 10:27:24;;;;;;;11.10;3.13;;;;;;;;;;5014928;28;20017;-77
2023/10/09 10:30:12;;;;;;;9.25;3.67;;;;;;;;;;5013822;28;20022;-77
2023/10/09 10:32:59;;;;;;;13.55;5.18;;;;;;;;;;5015331;28;20052;-77
2023/10/09 10:38:22;;;;;;;11.45;4.07;;;;;;;;;;5005260;28;20035;-78
2023/10/09 10:40:56;;;;;;;19.08;4.75;;;;;;;;;;4995717;28;20061;-78
2023/10/09 10:43:32;;;;;;;9.23;3.78;;;;;;;;;;4995516;28;20428;-77
2023/10/09 10:46:05;;;;;;;14.18;3.95;;;;;;;;;;4995310;28;20026;-76
2023/10/09 10:48:38;;;;;;;11.68;4.25;;;;;;;;;;4995056;28;20034;-77
2023/10/09 10:51:11;;;;;;;11.63;4.30;;;;;;;;;;4994337;28;20080;-77
2023/10/09 10:53:49;;;;;;;17.48;4.30;;;;;;;;;;4994635;28;20051;-77
2023/10/09 10:58:54;;;;;;;13.60;3.97;;;;;;;;;;4995683;28;20034;-77
2023/10/09 11:01:24;;;;;;;10.25;3.47;;;;;;;;;;5010150;28;20054;-77
2023/10/09 11:06:35;;;;;;;8.30;3.38;;;;;;;;;;5014714;28;20156;-76
2023/10/09 11:09:09;;;;;;;10.05;3.42;;;;;;;;;;5014000;28;20041;-77
2023/10/09 11:11:46;;;;;;;9.93;4.13;;;;;;;;;;5013988;28;20381;-76
2023/10/09 11:14:23;;;;;;;14.73;3.65;;;;;;;;;;5012922;28;20025;-77
2023/10/09 11:16:49;;;;;;;11.93;4.10;;;;;;;;;;5014360;28;20388;-76
2023/10/09 11:19:31;;;;;;;15.90;4.22;;;;;;;;;;5014431;28;20361;-76
2023/10/09 11:22:36;;;;;;;17.77;4.05;;;;;;;;;;5015283;28;20061;-76
2023/10/09 11:25:11;;;;;;;13.02;3.95;;;;;;;;;;5017449;28;20052;-78
2023/10/09 11:27:39;;;;;;;13.05;4.70;;;;;;;;;;5026268;28;20030;-78
2023/10/09 11:30:10;;;;;;;21.10;5.63;;;;;;;;;;5005034;28;20440;-78
2023/10/09 11:32:38;;;;;;;29.73;6.30;;;;;;;;;;4998758;28;20018;-78
2023/10/09 11:35:11;;;;;;;20.35;5.15;;;;;;;;;;4997902;28;20477;-77
2023/10/09 11:37:44;;;;;;;21.17;5.97;;;;;;;;;;4998069;28;20030;-78
2023/10/09 11:40:32;;;;;;;17.08;5.88;;;;;;;;;;4999274;28;20030;-79
2023/10/09 11:43:00;;;;;;;22.50;5.32;;;;;;;;;;4999980;28;20389;-78
2023/10/09 11:45:37;;;;;;;34.38;6.88;;;;;;;;;;4999092;28;20568;-77
2023/10/09 11:48:21;;;;;;;37.17;7.15;;;;;;;;;;4997594;28;20030;-77
2023/10/09 11:50:52;;;;;;;23.77;5.40;;;;;;;;;;5002156;28;20037;-79
2023/10/09 11:55:52;;;;;;;30.55;6.05;;;;;;;;;;5002458;28;20041;-79
2023/10/09 11:58:24;;;;;;;26.35;6.25;;;;;;;;;;4979894;28;20106;-78
2023/10/09 12:00:51;;;;;;;16.52;5.60;;;;;;;;;;4980807;28;20030;-77
2023/10/09 12:03:21;;;;;;;20.67;4.80;;;;;;;;;;4996780;28;20072;-77
2023/10/09 12:05:48;;;;;;;22.23;5.28;;;;;;;;;;4998378;28;20031;-78
2023/10/09 12:08:15;;;;;;;18.50;5.95;;;;;;;;;;4996832;28;20025;-78
2023/10/09 12:10:42;;;;;;;29.38;6.53;;;;;;;;;;5004572;28;20448;-77
2023/10/09 12:13:08;;;;;;;18.38;5.78;;;;;;;;;;5021242;28;20088;-78
2023/10/09 12:15:37;;;;;;;24.33;5.40;;;;;;;;;;5020563;28;20032;-78
2023/10/09 12:18:06;;;;;;;20.17;4.80;;;;;;;;;;5018480;28;20066;-78
2023/10/09 12:20:34;;;;;;;22.88;5.88;;;;;;;;;;5017943;28;20022;-77
2023/10/09 12:23:00;;;;;;;27.10;6.88;;;;;;;;;;5012851;28;20029;-78
2023/10/09 12:25:31;;;;;;;21.58;5.78;;;;;;;;;;5002414;28;20030;-78
2023/10/09 12:27:57;;;;;;;18.83;5.13;;;;;;;;;;5000234;28;20037;-78
2023/10/09 12:30:39;;;;;;;13.80;4.53;;;;;;;;;;4987258;28;20034;-77
2023/10/09 12:33:07;;;;;;;22.92;5.40;;;;;;;;;;5023244;28;20025;-77
2023/10/09 12:35:36;;;;;;;34.97;5.95;;;;;;;;;;5026960;28;20030;-77
2023/10/09 12:38:03;;;;;;;23.33;5.25;;;;;;;;;;5037867;28;20080;-77
2023/10/09 12:40:30;;;;;;;15.23;4.05;;;;;;;;;;5036746;28;20037;-78
2023/10/09 12:43:00;;;;;;;13.13;4.47;;;;;;;;;;5021378;28;20026;-77
2023/10/09 12:45:27;;;;;;;21.23;5.68;;;;;;;;;;5016341;28;20068;-77
2023/10/09 12:47:59;;;;;;;20.27;5.25;;;;;;;;;;5016238;28;20022;-76
2023/10/09 12:50:29;;;;;;;23.48;6.20;;;;;;;;;;5002838;28;20042;-77
2023/10/09 12:52:56;;;;;;;14.65;4.47;;;;;;;;;;5031105;28;20014;-77
2023/10/09 12:55:31;;;;;;;15.60;4.30;;;;;;;;;;5032912;28;20049;-78
2023/10/09 12:58:00;;;;;;;13.88;4.03;;;;;;;;;;5027562;28;20028;-79
2023/10/09 13:00:26;;;;;;;24.02;5.22;;;;;;;;;;5023627;28;20036;-78
2023/10/09 13:02:55;;;;;;;17.38;6.35;;;;;;;;;;5021630;28;20066;-77
2023/10/09 13:05:27;;;;;;;20.73;5.47;;;;;;;;;;5022723;28;20081;-78
2023/10/09 13:07:56;;;;;;;12.73;3.83;;;;;;;;;;5021316;28;20072;-77
2023/10/09 13:10:24;;;;;;;11.20;3.42;;;;;;;;;;5022082;28;20536;-78
2023/10/09 13:12:55;;;;;;;10.90;3.67;;;;;;;;;;5015792;28;20030;-78
2023/10/09 13:15:22;;;;;;;7.97;3.38;;;;;;;;;;4989562;28;20026;-78
2023/10/09 13:17:48;;;;;;;20.98;5.22;;;;;;;;;;5004824;28;20026;-78
2023/10/09 13:20:14;;;;;;;11.43;4.18;;;;;;;;;;5001570;28;20029;-78
2023/10/09 13:22:46;;;;;;;11.00;3.92;;;;;;;;;;5015618;28;20045;-77
2023/10/09 13:25:16;;;;;;;17.17;4.30;;;;;;;;;;5038432;28;20081;-76
2023/10/09 13:27:51;;;;;;;20.25;5.28;;;;;;;;;;5030173;28;20090;-77
2023/10/09 13:30:24;;;;;;;23.65;4.60;;;;;;;;;;5035894;28;20032;-77
2023/10/09 13:32:51;;;;;;;14.05;4.40;;;;;;;;;;5038241;28;20057;-76
2023/10/09 13:35:27;;;;;;;10.35;3.28;;;;;;;;;;5033827;28;20037;-76
2023/10/09 13:37:56;;;;;;;18.10;3.97;;;;;;;;;;5029934;28;20030;-77
2023/10/09 13:40:28;;;;;;;13.93;3.90;;;;;;;;;;5029242;28;20022;-77
2023/10/09 13:43:01;;;;;;;16.88;4.80;;;;;;;;;;5025046;28;20037;-77
2023/10/09 13:45:28;;;;;;;14.77;3.95;;;;;;;;;;5003215;28;20053;-78
2023/10/09 13:47:54;;;;;;;16.02;4.63;;;;;;;;;;5019459;28;20021;-78
2023/10/09 13:50:21;;;;;;;11.35;3.83;;;;;;;;;;5018798;28;20318;-77
2023/10/09 13:52:48;;;;;;;18.00;4.43;;;;;;;;;;5019980;28;20476;-78
2023/10/09 13:55:17;;;;;;;22.85;5.43;;;;;;;;;;4999791;28;20023;-79
2023/10/09 13:57:46;;;;;;;13.48;4.40;;;;;;;;;;4981232;28;20481;-77
2023/10/09 14:00:34;;;;;;;12.85;3.33;;;;;;;;;;4979555;28;20027;-77
2023/10/09 14:03:11;;;;;;;10.68;2.95;;;;;;;;;;4978399;28;20038;-78
2023/10/09 14:05:44;;;;;;;20.75;5.18;;;;;;;;;;5013291;28;20037;-78
2023/10/09 14:08:10;;;;;;;16.05;4.63;;;;;;;;;;5005893;28;20069;-77
2023/10/09 14:10:39;;;;;;;16.73;4.20;;;;;;;;;;4998485;28;20037;-78
2023/10/09 14:13:12;;;;;;;7.20;3.00;;;;;;;;;;5001350;28;20022;-78
2023/10/09 14:15:42;;;;;;;6.15;2.40;;;;;;;;;;5014747;28;20392;-77
2023/10/09 14:18:11;;;;;;;3.83;2.28;;;;;;;;;;5002828;28;20301;-76
2023/10/09 14:20:37;;;;;;;8.82;2.50;;;;;;;;;;4981759;28;20030;-76
2023/10/09 14:24:19;;;;;;;5.68;2.65;;;;;;;;;;4999633;28;20497;-80
2023/10/09 14:26:29;;;;;;;4.57;2.17;;;;;;;;;;5032828;23;20150;-76
2023/10/09 14:28:56;;;;;;;2.53;1.65;;;;;;;;;;5035135;28;20048;-76
2023/10/09 14:31:27;;;;;;;3.97;1.67;;;;;;;;;;5034972;28;20152;-75
2023/10/09 14:33:54;;;;;;;3.60;1.80;;;;;;;;;;5034000;28;20388;-76
2023/10/09 14:36:21;;;;;;;1.65;1.10;;;;;;;;;;5019244;28;20491;-76
2023/10/09 14:38:52;;;;;;;2.22;1.25;;;;;;;;;;4996581;28;20029;-76
2023/10/09 14:41:21;;;;;;;2.33;1.40;;;;;;;;;;5014573;28;20091;-76
2023/10/09 14:43:48;;;;;;;1.85;0.95;;;;;;;;;;4997347;28;20021;-75
2023/10/09 14:46:14;;;;;;;1.20;1.00;;;;;;;;;;4986071;28;20036;-76
2023/10/09 14:48:45;;;;;;;1.70;0.90;;;;;;;;;;4994950;28;20060;-76
2023/10/09 14:51:13;;;;;;;2.60;1.33;;;;;;;;;;4977397;28;20034;-75
2023/10/09 14:53:40;;;;;;;11.13;2.92;;;;;;;;;;4977717;28;20289;-77
2023/10/09 14:56:14;;;;;;;6.07;2.60;;;;;;;;;;5013844;28;20022;-75
2023/10/09 14:58:40;;;;;;;5.43;2.28;;;;;;;;;;5014468;28;20105;-76
2023/10/09 15:01:10;;;;;;;4.97;2.13;;;;;;;;;;5018304;28;20121;-76
2023/10/09 15:03:39;;;;;;;5.45;2.47;;;;;;;;;;5015510;28;20022;-76
2023/10/09 15:06:10;;;;;;;12.00;2.85;;;;;;;;;;4998167;28;20026;-76
2023/10/09 15:08:36;;;;;;;10.85;3.30;;;;;;;;;;4997206;28;20404;-76
2023/10/09 15:11:02;;;;;;;11.65;3.45;;;;;;;;;;5016139;28;20206;-76
2023/10/09 15:13:28;;;;;;;5.50;2.42;;;;;;;;;;5014817;28;20100;-77
2023/10/09 15:15:55;;;;;;;10.63;3.78;;;;;;;;;;5014827;28;20026;-76
2023/10/09 15:18:22;;;;;;;6.70;3.30;;;;;;;;;;5013916;28;20033;-75
2023/10/09 15:20:48;;;;;;;10.55;3.33;;;;;;;;;;5014505;28;20455;-76
2023/10/09 15:23:14;;;;;;;11.00;3.15;;;;;;;;;;5015657;28;20069;-77
2023/10/09 15:25:44;;;;;;;11.15;3.30;;;;;;;;;;5013701;28;20102;-77
2023/10/09 15:28:11;;;;;;;8.38;3.28;;;;;;;;;;5014178;28;20095;-77
2023/10/09 15:30:37;;;;;;;8.38;2.90;;;;;;;;;;5014389;28;20034;-76
2023/10/09 15:33:05;;;;;;;8.90;2.85;;;;;;;;;;5014420;28;20025;-76
2023/10/09 15:35:33;;;;;;;5.15;2.55;;;;;;;;;;5014379;28;20068;-76
2023/10/09 15:38:03;;;;;;;6.88;2.30;;;;;;;;;;5014952;28;20022;-76
2023/10/09 15:40:33;;;;;;;3.20;1.75;;;;;;;;;;5015902;28;20022;-77
2023/10/09 15:42:59;;;;;;;3.17;1.85;;;;;;;;;;5018678;28;20068;-75
2023/10/09 15:45:28;;;;;;;3.42;2.00;;;;;;;;;;5017264;28;20029;-77
2023/10/09 15:47:54;;;;;;;2.60;1.60;;;;;;;;;;5014850;28;20026;-75
2023/10/09 15:50:24;;;;;;;2.47;1.70;;;;;;;;;;4995815;28;20103;-76
2023/10/09 15:52:51;;;;;;;2.22;1.17;;;;;;;;;;4996474;28;20058;-76
2023/10/09 15:55:20;;;;;;;3.45;1.50;;;;;;;;;;5018617;28;20029;-74
2023/10/09 15:57:48;;;;;;;1.85;1.40;;;;;;;;;;5015293;28;20030;-76
2023/10/09 16:00:17;;;;;;;1.50;1.30;;;;;;;;;;5016070;28;20158;-75
2023/10/09 16:02:43;;;;;;;1.95;1.13;;;;;;;;;;5019617;28;20026;-75
2023/10/09 16:05:11;;;;;;;1.88;1.10;;;;;;;;;;5019924;28;20018;-74
2023/10/09 16:07:38;;;;;;;1.48;1.10;;;;;;;;;;5022819;28;20022;-75
2023/10/09 16:10:05;;;;;;;2.03;1.38;;;;;;;;;;5010018;28;20041;-76
2023/10/09 16:12:31;;;;;;;1.45;1.35;;;;;;;;;;5028481;28;20429;-75
2023/10/09 16:14:57;;;;;;;1.80;0.98;;;;;;;;;;5027443;28;20067;-75
2023/10/09 16:17:24;;;;;;;2.00;1.13;;;;;;;;;;5018688;28;20076;-76
2023/10/09 16:19:51;;;;;;;1.27;1.17;;;;;;;;;;5018108;28;20029;-75
2023/10/09 16:22:17;;;;;;;0.73;0.73;;;;;;;;;;5017494;28;20029;-76
2023/10/09 16:24:46;;;;;;;1.02;0.93;;;;;;;;;;5016869;28;20026;-75
2023/10/09 16:27:14;;;;;;;1.58;1.30;;;;;;;;;;5016839;28;20078;-75
2023/10/09 16:29:44;;;;;;;1.55;1.00;;;;;;;;;;5016106;28;20034;-76
2023/10/09 16:32:12;;;;;;;1.05;1.00;;;;;;;;;;5016849;28;20076;-77
2023/10/09 16:34:40;;;;;;;1.40;1.30;;;;;;;;;;5016715;28;20028;-75
2023/10/09 16:37:06;;;;;;;1.10;1.00;;;;;;;;;;5016701;28;20442;-76
2023/10/09 16:39:38;;;;;;;1.83;1.00;;;;;;;;;;5016717;28;20029;-77
2023/10/09 16:42:04;;;;;;;2.70;1.20;;;;;;;;;;5017363;28;20078;-76
2023/10/09 16:44:36;;;;;;;2.40;1.08;;;;;;;;;;5016020;28;20480;-76
2023/10/09 16:47:03;;;;;;;1.90;1.10;;;;;;;;;;5016068;28;20030;-76
2023/10/09 16:49:30;;;;;;;1.20;0.80;;;;;;;;;;5015655;28;20113;-76
2023/10/09 16:51:56;;;;;;;2.00;1.08;;;;;;;;;;5015702;28;20072;-76
2023/10/09 16:54:23;;;;;;;1.38;1.00;;;;;;;;;;4998035;28;20042;-77
2023/10/09 16:56:51;;;;;;;1.70;0.98;;;;;;;;;;5016391;28;20396;-75
2023/10/09 16:59:18;;;;;;;1.00;0.90;;;;;;;;;;5016020;28;20099;-77
2023/10/09 17:01:47;;;;;;;1.52;1.20;;;;;;;;;;5016170;28;20025;-76
2023/10/09 17:04:16;;;;;;;0.95;0.85;;;;;;;;;;5016074;28;20444;-76
2023/10/09 17:06:44;;;;;;;1.17;1.08;;;;;;;;;;4998600;28;20257;-78
2023/10/09 17:09:12;;;;;;;2.78;1.40;;;;;;;;;;5020109;28;20022;-75
2023/10/09 17:11:39;;;;;;;1.40;1.30;;;;;;;;;;4998909;28;20021;-76
2023/10/09 17:14:12;;;;;;;2.05;1.10;;;;;;;;;;5016062;28;20025;-77
2023/10/09 17:16:44;;;;;;;2.42;1.40;;;;;;;;;;5015575;28;20104;-76
2023/10/09 17:19:13;;;;;;;1.48;1.20;;;;;;;;;;5015740;28;20029;-75